createdAt,value
2019-06-20T00:02:37.420Z,4.83
2019-06-20T00:06:50.147Z,4.40
2019-06-20T00:11:02.961Z,4.50
2019-06-20T00:15:15.794Z,3.90
2019-06-20T00:19:28.216Z,4.80
2019-06-20T00:23:41.100Z,4.53
2019-06-20T00:27:53.848Z,4.40
2019-06-20T00:32:06.730Z,4.37
2019-06-20T00:36:19.236Z,3.80
2019-06-20T00:40:32.093Z,5.07
2019-06-20T00:44:44.672Z,4.80
2019-06-20T00:48:57.180Z,4.70
2019-06-20T00:53:09.843Z,4.53
2019-06-20T00:57:22.408Z,4.10
2019-06-20T01:01:35.298Z,4.77
2019-06-20T01:05:47.891Z,3.97
2019-06-20T01:10:00.264Z,3.93
2019-06-20T01:14:13.445Z,3.97
2019-06-20T01:18:25.843Z,4.10
2019-06-20T01:22:38.605Z,4.40
2019-06-20T01:26:51.259Z,3.77
2019-06-20T01:31:04.055Z,3.97
2019-06-20T01:35:16.646Z,5.07
2019-06-20T01:39:29.216Z,4.50
2019-06-20T01:43:50.620Z,4.47
2019-06-20T01:47:55.804Z,4.87
2019-06-20T01:52:08.205Z,4.80
2019-06-20T01:56:20.880Z,4.13
2019-06-20T02:00:45.684Z,4.93
2019-06-20T02:04:58.053Z,4.50
2019-06-20T02:09:11.049Z,4.97
2019-06-20T02:13:23.572Z,4.80
2019-06-20T02:17:36.292Z,4.87
2019-06-20T02:21:48.786Z,5.73
2019-06-20T02:26:01.254Z,4.30
2019-06-20T02:30:14.051Z,5.50
2019-06-20T02:34:26.761Z,4.77
2019-06-20T02:38:39.596Z,4.87
2019-06-20T02:42:52.159Z,4.80
2019-06-20T02:47:04.969Z,4.67
2019-06-20T02:51:18.025Z,5.40
2019-06-20T02:55:30.792Z,5.23
2019-06-20T02:59:43.326Z,5.37
2019-06-20T03:03:55.766Z,5.30
2019-06-20T03:08:08.443Z,5.60
2019-06-20T03:12:20.845Z,5.50
2019-06-20T03:16:33.337Z,6.30
2019-06-20T03:20:46.004Z,6.27
2019-06-20T03:24:58.505Z,6.53
2019-06-20T03:29:11.371Z,6.33
2019-06-20T03:33:24.049Z,6.03
2019-06-20T03:37:36.636Z,5.87
2019-06-20T03:41:49.393Z,5.70
2019-06-20T03:46:01.863Z,4.77
2019-06-20T03:50:14.378Z,4.37
2019-06-20T03:54:27.048Z,4.83
2019-06-20T03:58:39.632Z,5.30
2019-06-20T04:02:52.313Z,5.30
2019-06-20T04:07:05.011Z,4.90
2019-06-20T04:11:17.503Z,5.13
2019-06-20T04:15:30.207Z,5.00
2019-06-20T04:19:42.735Z,4.73
2019-06-20T04:23:55.612Z,4.77
2019-06-20T04:28:08.121Z,4.67
2019-06-20T04:32:20.600Z,5.03
2019-06-20T04:36:33.375Z,4.73
2019-06-20T04:40:45.944Z,5.03
2019-06-20T04:45:00.424Z,5.30
2019-06-20T04:49:12.854Z,5.20
2019-06-20T04:53:25.324Z,5.20
2019-06-20T04:57:38.114Z,5.30
2019-06-20T05:01:50.681Z,5.50
2019-06-20T05:06:03.105Z,5.90
2019-06-20T05:10:15.808Z,5.57
2019-06-20T05:14:28.328Z,5.67
2019-06-20T05:18:41.039Z,5.77
2019-06-20T05:22:53.580Z,5.33
2019-06-20T05:27:05.979Z,4.80
2019-06-20T05:31:18.707Z,4.97
2019-06-20T05:35:31.138Z,5.27
2019-06-20T05:39:43.526Z,5.20
2019-06-20T05:43:56.348Z,4.60
2019-06-20T05:48:08.776Z,4.70
2019-06-20T05:52:21.504Z,5.07
2019-06-20T05:56:34.026Z,4.93
2019-06-20T06:00:46.428Z,4.27
2019-06-20T06:04:59.112Z,4.00
2019-06-20T06:09:11.578Z,4.13
2019-06-20T06:13:24.505Z,4.50
2019-06-20T06:17:37.044Z,4.07
2019-06-20T06:21:49.440Z,4.00
2019-06-20T06:26:02.221Z,4.60
2019-06-20T06:30:15.043Z,4.43
2019-06-20T06:34:27.812Z,3.83
2019-06-20T06:38:40.352Z,3.90
2019-06-20T06:42:52.754Z,4.40
2019-06-20T06:47:05.633Z,4.37
2019-06-20T06:51:18.079Z,5.07
2019-06-20T06:55:30.914Z,4.40
2019-06-20T06:59:43.447Z,3.53
2019-06-20T07:03:55.889Z,4.00
2019-06-20T07:08:08.667Z,4.00
2019-06-20T07:12:21.206Z,4.70
2019-06-20T07:16:33.640Z,3.70
2019-06-20T07:20:46.381Z,3.60
2019-06-20T07:24:58.875Z,4.30
2019-06-20T07:29:11.706Z,3.73
2019-06-20T07:33:25.677Z,3.67
2019-06-20T07:37:38.076Z,3.57
2019-06-20T07:41:50.443Z,3.80
2019-06-20T07:46:03.439Z,3.50
2019-06-20T07:50:16.003Z,3.20
2019-06-20T07:54:28.765Z,2.97
2019-06-20T07:58:41.155Z,2.60
2019-06-20T08:02:53.549Z,2.97
2019-06-20T08:07:06.330Z,2.80
2019-06-20T08:11:18.860Z,2.77
2019-06-20T08:15:31.305Z,2.77
2019-06-20T08:19:43.993Z,2.50
2019-06-20T08:23:56.465Z,2.30
2019-06-20T08:28:09.307Z,2.77
2019-06-20T08:32:21.895Z,2.17
2019-06-20T08:36:34.887Z,2.00
2019-06-20T08:40:47.515Z,1.90
2019-06-20T08:45:00.191Z,2.00
2019-06-20T08:49:12.953Z,1.60
2019-06-20T08:53:25.610Z,1.60
2019-06-20T08:57:38.446Z,1.93
2019-06-20T09:01:50.859Z,2.00
2019-06-20T09:10:16.020Z,1.50
2019-06-20T09:14:28.630Z,1.80
2019-06-20T09:18:41.059Z,1.57
2019-06-20T09:22:55.205Z,1.57
2019-06-20T09:27:07.831Z,1.30
2019-06-20T09:31:20.424Z,1.90
2019-06-20T09:35:32.469Z,1.33
2019-06-20T09:39:44.876Z,1.60
2019-06-20T09:43:58.561Z,1.67
2019-06-20T09:48:11.382Z,1.90
2019-06-20T09:52:23.836Z,1.50
2019-06-20T09:56:35.566Z,1.70
2019-06-20T10:00:49.215Z,1.70
2019-06-20T10:05:02.056Z,1.40
2019-06-20T10:09:14.836Z,1.50
2019-06-20T10:13:27.237Z,1.43
2019-06-20T10:17:40.024Z,2.07
2019-06-20T10:21:53.779Z,1.73
2019-06-20T10:26:06.332Z,1.87
2019-06-20T10:30:19.512Z,2.10
2019-06-20T10:34:31.944Z,2.10
2019-06-20T10:38:46.410Z,2.13
2019-06-20T10:42:58.960Z,2.10
2019-06-20T10:47:11.342Z,1.83
2019-06-20T10:51:39.204Z,2.33
2019-06-20T10:55:51.881Z,1.90
2019-06-20T11:00:05.284Z,2.30
2019-06-20T11:04:17.728Z,1.63
2019-06-20T11:08:30.450Z,1.83
2019-06-20T11:12:50.175Z,1.70
2019-06-20T11:16:56.884Z,1.93
2019-06-20T11:21:09.741Z,1.80
2019-06-20T11:25:22.377Z,1.40
2019-06-20T11:29:35.157Z,1.70
2019-06-20T11:33:48.405Z,2.10
2019-06-20T11:38:01.044Z,1.80
2019-06-20T11:42:13.401Z,1.60
2019-06-20T11:46:28.790Z,2.00
2019-06-20T11:50:42.421Z,1.77
2019-06-20T11:54:55.388Z,1.67
2019-06-20T11:59:07.418Z,1.80
2019-06-20T12:03:20.049Z,1.90
2019-06-20T12:07:32.830Z,1.70
2019-06-20T12:11:46.882Z,1.33
2019-06-20T12:15:59.328Z,1.20
2019-06-20T12:20:12.529Z,1.20
2019-06-20T12:24:24.868Z,1.17
2019-06-20T12:28:38.979Z,0.93
2019-06-20T12:32:51.629Z,1.20
2019-06-20T12:37:04.215Z,0.70
2019-06-20T12:41:17.066Z,0.97
2019-06-20T12:45:29.616Z,1.07
2019-06-20T12:49:41.968Z,0.97
2019-06-20T12:53:54.883Z,1.07
2019-06-20T12:58:07.301Z,1.10
2019-06-20T13:02:20.241Z,1.07
2019-06-20T13:06:32.787Z,0.90
2019-06-20T13:10:46.182Z,1.00
2019-06-20T13:14:58.867Z,1.00
2019-06-20T13:19:11.472Z,1.10
2019-06-20T13:23:24.071Z,0.90
2019-06-20T13:27:39.083Z,1.10
2019-06-20T13:32:01.985Z,0.77
2019-06-20T13:36:04.897Z,1.20
2019-06-20T13:40:18.773Z,0.90
2019-06-20T13:44:31.791Z,1.27
2019-06-20T13:48:45.702Z,0.93
2019-06-20T13:52:58.337Z,1.23
2019-06-20T13:57:11.105Z,1.00
2019-06-20T14:01:23.137Z,0.87
2019-06-20T14:05:35.491Z,0.97
2019-06-20T14:09:48.751Z,1.20
2019-06-20T14:14:01.233Z,1.10
2019-06-20T14:18:14.189Z,1.20
2019-06-20T14:22:26.753Z,1.40
2019-06-20T14:26:39.090Z,1.53
2019-06-20T14:30:52.692Z,1.33
2019-06-20T14:35:05.695Z,1.40
2019-06-20T14:39:18.264Z,1.13
2019-06-20T14:43:31.287Z,1.30
2019-06-20T14:47:43.720Z,1.23
2019-06-20T14:51:56.625Z,1.10
2019-06-20T14:56:09.140Z,0.93
2019-06-20T15:00:22.324Z,1.10
2019-06-20T15:04:34.734Z,1.40
2019-06-20T15:08:48.691Z,1.57
2019-06-20T15:13:01.153Z,1.30
2019-06-20T15:17:14.133Z,1.43
2019-06-20T15:21:26.545Z,1.50
2019-06-20T15:25:39.393Z,1.17
2019-06-20T15:29:52.247Z,1.20
2019-06-20T15:34:04.674Z,0.90
2019-06-20T15:38:17.293Z,1.57
2019-06-20T15:42:29.930Z,1.00
2019-06-20T15:46:42.721Z,1.13
2019-06-20T15:50:55.156Z,0.87
2019-06-20T15:55:07.827Z,1.30
2019-06-20T15:59:20.560Z,1.03
2019-06-20T16:03:33.021Z,1.10
2019-06-20T16:07:45.623Z,1.00
2019-06-20T16:11:58.216Z,0.70
2019-06-20T16:16:10.658Z,1.13
2019-06-20T16:20:23.626Z,1.17
2019-06-20T16:24:36.550Z,1.00
2019-06-20T16:28:49.255Z,1.23
2019-06-20T16:33:01.593Z,1.10
2019-06-20T16:37:14.517Z,1.40
2019-06-20T16:41:26.896Z,1.23
2019-06-20T16:45:39.882Z,1.47
2019-06-20T16:49:52.447Z,1.60
2019-06-20T16:54:05.333Z,1.20
2019-06-20T16:58:17.994Z,1.40
2019-06-20T17:02:30.332Z,1.40
2019-06-20T17:06:43.202Z,1.30
2019-06-20T17:10:55.860Z,1.47
2019-06-20T17:15:09.037Z,1.33
2019-06-20T17:19:23.648Z,1.40
2019-06-20T17:23:36.316Z,1.30
2019-06-20T17:27:48.788Z,1.20
2019-06-20T17:32:01.581Z,1.00
2019-06-20T17:36:18.230Z,1.33
2019-06-20T17:40:28.320Z,1.50
2019-06-20T17:44:40.972Z,1.40
2019-06-20T17:48:54.514Z,1.97
2019-06-20T17:53:07.356Z,1.23
2019-06-20T17:57:20.092Z,1.50
2019-06-20T18:01:35.915Z,1.00
2019-06-20T18:05:47.046Z,1.30
2019-06-20T18:09:59.653Z,1.60
2019-06-20T18:14:12.583Z,1.47
2019-06-20T18:18:25.217Z,1.20
2019-06-20T18:22:38.233Z,1.10
2019-06-20T18:26:50.695Z,1.33
2019-06-20T18:31:03.098Z,1.40
2019-06-20T18:35:16.028Z,1.53
2019-06-20T18:39:29.679Z,1.00
2019-06-20T18:43:41.996Z,1.20
2019-06-20T18:47:54.884Z,0.97
2019-06-20T18:52:07.344Z,1.03
2019-06-20T18:56:19.862Z,1.30
2019-06-20T19:00:35.047Z,1.23
2019-06-20T19:04:50.743Z,1.00
2019-06-20T19:09:01.396Z,1.30
2019-06-20T19:13:13.924Z,1.10
2019-06-20T19:17:27.048Z,1.17
2019-06-20T19:21:39.622Z,0.83
2019-06-20T19:25:52.641Z,1.10
2019-06-20T19:30:05.447Z,1.03
2019-06-20T19:34:18.312Z,1.00
2019-06-20T19:38:30.970Z,0.90
2019-06-20T19:42:43.792Z,1.00
2019-06-20T19:46:56.237Z,0.87
2019-06-20T19:51:09.358Z,1.10
2019-06-20T19:55:21.902Z,0.90
2019-06-20T19:59:34.900Z,1.20
2019-06-20T20:03:47.401Z,0.87
2019-06-20T20:07:59.864Z,0.80
2019-06-20T20:12:12.889Z,0.90
2019-06-20T20:16:25.498Z,0.93
2019-06-20T20:20:38.676Z,1.10
2019-06-20T20:24:51.124Z,1.33
2019-06-20T20:29:03.909Z,0.90
2019-06-20T20:33:16.595Z,1.20
2019-06-20T20:37:28.921Z,1.30
2019-06-20T20:41:41.861Z,1.30
2019-06-20T20:45:54.320Z,1.50
2019-06-20T20:50:07.060Z,1.20
2019-06-20T20:54:19.694Z,1.60
2019-06-20T20:58:32.118Z,1.33
2019-06-20T21:02:45.070Z,1.33
2019-06-20T21:06:57.647Z,1.40
2019-06-20T21:11:10.109Z,1.30
2019-06-20T21:15:23.478Z,1.30
2019-06-20T21:19:36.306Z,1.37
2019-06-20T21:23:48.923Z,1.20
2019-06-20T21:28:01.757Z,1.40
2019-06-20T21:32:14.377Z,1.67
2019-06-20T21:36:26.781Z,1.67
2019-06-20T21:40:39.511Z,1.70
2019-06-20T21:44:51.924Z,1.60
2019-06-20T21:49:04.331Z,1.90
2019-06-20T21:53:17.060Z,1.90
2019-06-20T21:57:29.674Z,1.73
2019-06-20T22:01:42.663Z,1.60
2019-06-20T22:05:55.041Z,1.60
2019-06-20T22:10:09.284Z,1.90
2019-06-20T22:14:22.006Z,1.57
2019-06-20T22:18:34.415Z,1.97
2019-06-20T22:22:47.162Z,1.97
2019-06-20T22:26:59.666Z,2.10
2019-06-20T22:31:12.483Z,2.40
2019-06-20T22:35:25.029Z,1.83
2019-06-20T22:39:37.421Z,2.10
2019-06-20T22:43:50.147Z,2.10
2019-06-20T22:48:02.568Z,2.10
2019-06-20T22:52:14.999Z,1.93
2019-06-20T22:56:28.711Z,1.90
2019-06-20T23:00:41.446Z,1.90
2019-06-20T23:04:53.966Z,1.93
2019-06-20T23:09:11.241Z,2.30
2019-06-20T23:13:23.859Z,2.13
2019-06-20T23:17:36.681Z,1.93
2019-06-20T23:21:49.201Z,2.00
2019-06-20T23:26:03.404Z,2.50
2019-06-20T23:30:16.949Z,2.47
2019-06-20T23:34:29.777Z,2.47
2019-06-20T23:38:42.236Z,1.70
2019-06-20T23:42:54.608Z,2.13
2019-06-20T23:47:07.341Z,2.40
2019-06-20T23:51:25.446Z,2.07
2019-06-20T23:55:34.624Z,2.23
2019-06-20T23:59:47.220Z,2.67
